Seastreak Highlands — WDE4031 — position and weather

sailwx.info

Track history (hours):
 
Tides and Currents Weather Stations Pressure Air Temp Water Temp Dewpoint Dewpoint Depression Visibility Wind Speed Wind Dir Waves Ship Positions

Seastreak Highlands

Owner: Seastreak llc, atlantic highlands, NJ. More information available from US FCC via Universal Licensing System and Coast Guard Vessel Documentation Center.

Last reported at 2016-May-05 23:34 UTC. Time now 2016-May-05 23:54 UTC.
Position N 40°44' W 073°58'.

Length 44 m.

Type: High speed craft. MMSI: 367347670.

Date/timePositionNaut miles runAvg speedWind from/ knotsBaromVisibWave heightAir tempDewpointWater temp
2016-May-05 23:34N 40°44' W 073°58'3 1.5
2016-May-05 21:34N 40°42' W 074°01'0 0.2
2016-May-05 20:34N 40°42' W 074°01'11 9.1
2016-May-05 19:24N 40°31' W 074°02'1416.2
2016-May-05 18:33N 40°45' W 073°58'0 0.0
2016-May-05 17:33N 40°45' W 073°58'0 0.0
2016-May-05 16:34N 40°45' W 073°58'0 0.0
2016-May-05 15:34N 40°45' W 073°58'0 0.0
2016-May-05 14:34N 40°45' W 073°58'4 4.4
2016-May-05 13:34N 40°41' W 074°01'6 5.5
2016-May-05 12:33N 40°35' W 074°02'6 5.5
2016-May-05 11:33N 40°41' W 074°02'8 0.7
2016-May-05 00:06N 40°33' W 074°02'1121.4
2016-May-04 23:33N 40°44' W 073°58'3 1.7
2016-May-04 21:34N 40°41' W 074°01'2 2.1
2016-May-04 20:34N 40°40' W 074°02'7 5.5
2016-May-04 19:23N 40°33' W 074°02'1214.6
2016-May-04 18:33N 40°45' W 073°58'0 0.0
2016-May-04 17:33N 40°45' W 073°58'0 0.0
2016-May-04 16:33N 40°45' W 073°58'0 0.0
2016-May-04 15:33N 40°45' W 073°58'0 0.0
2016-May-04 14:33N 40°45' W 073°58'3 2.9
2016-May-04 13:33N 40°42' W 074°00'9 8.9
2016-May-04 12:32N 40°33' W 074°02'8 7.7
2016-May-04 11:34N 40°41' W 074°01'4 0.3
2016-May-03 23:34N 40°44' W 073°58'3 1.5
2016-May-03 21:34N 40°42' W 074°01'3 2.8
2016-May-03 20:34N 40°39' W 074°02'5 4.1
2016-May-03 19:21N 40°34' W 074°02'1113.9
2016-May-03 18:34N 40°45' W 073°58'0 0.0
2016-May-03 17:34N 40°45' W 073°58'0 0.0
2016-May-03 16:34N 40°45' W 073°58'0 0.0
2016-May-03 15:34N 40°45' W 073°58'0 0.0
2016-May-03 14:34N 40°45' W 073°58'3 2.9
2016-May-03 13:34N 40°42' W 074°00'9 8.9
2016-May-03 12:31N 40°33' W 074°02'7 7.6
2016-May-03 11:34N 40°40' W 074°02'6 0.6
2016-May-03 00:06N 40°34' W 074°02'1120.1
2016-May-02 23:34N 40°44' W 073°58'3 1.5
2016-May-02 21:33N 40°42' W 074°01'1 1.2
2016-May-02 20:34N 40°41' W 074°01'8 6.4
2016-May-02 19:22N 40°33' W 074°03'1214.4
2016-May-02 18:33N 40°45' W 073°58'0 0.0
2016-May-02 17:33N 40°45' W 073°58'0 0.0
2016-May-02 16:33N 40°45' W 073°58'0 0.0
2016-May-02 15:34N 40°45' W 073°58'0 0.0
2016-May-02 14:33N 40°45' W 073°58'3 3.0
2016-May-02 13:34N 40°42' W 074°00'9 8.7
2016-May-02 12:31N 40°33' W 074°02'7 7.7
2016-May-02 11:34N 40°41' W 074°01'  
2016-Apr-30 00:03N 40°33' W 074°02'1122.0
2016-Apr-29 23:34N 40°43' W 073°58'3 1.3
2016-Apr-29 21:33N 40°41' W 074°01'0 0.5
2016-Apr-29 20:34N 40°41' W 074°01'8 6.3
2016-Apr-29 19:21N 40°33' W 074°03'1215.0
2016-Apr-29 18:33N 40°45' W 073°58'0 0.0
2016-Apr-29 17:33N 40°45' W 073°58'0 0.0
2016-Apr-29 16:33N 40°45' W 073°58'0 0.0
2016-Apr-29 15:33N 40°45' W 073°58'0 0.0
2016-Apr-29 14:33N 40°45' W 073°58'3 2.9
2016-Apr-29 13:33N 40°42' W 074°00'9 8.7
2016-Apr-29 12:31N 40°33' W 074°03'7 7.4
2016-Apr-29 11:33N 40°40' W 074°01'6 0.5
2016-Apr-29 00:04N 40°35' W 074°03'1013.9
2016-Apr-28 23:19N 40°45' W 073°58'4 2.1
2016-Apr-28 21:34N 40°41' W 074°01'1 0.9
2016-Apr-28 20:34N 40°41' W 074°02'7 6.0
2016-Apr-28 19:22N 40°34' W 074°03'1113.4
2016-Apr-28 18:32N 40°45' W 073°58'0 0.0
2016-Apr-28 17:31N 40°45' W 073°58'0 0.0
2016-Apr-28 16:32N 40°45' W 073°58'0 0.0
2016-Apr-28 15:25N 40°45' W 073°58'0 0.0
2016-Apr-28 14:31N 40°45' W 073°58'3 3.6
2016-Apr-28 13:33N 40°42' W 074°00'7 6.1
2016-Apr-28 12:28N 40°35' W 074°03'5 5.3
2016-Apr-28 11:34N 40°40' W 074°01'  
Track history (hours):
 
Tides and Currents Weather Stations Pressure Air Temp Water Temp Dewpoint Dewpoint Depression Visibility Wind Speed Wind Dir Waves Ship Positions

Seastreak Highlands

Owner: Seastreak llc, atlantic highlands, NJ. More information available from US FCC via Universal Licensing System and Coast Guard Vessel Documentation Center.

Last reported at 2016-May-05 23:34 UTC. Time now 2016-May-05 23:54 UTC.
Position N 40°44' W 073°58'.

Length 44 m.

Type: High speed craft. MMSI: 367347670.

Date/timePositionNaut miles runAvg speedWind from/ knotsBaromVisibWave heightAir tempDewpointWater temp
2016-May-05 23:34N 40°44' W 073°58'3 1.5
2016-May-05 21:34N 40°42' W 074°01'0 0.2
2016-May-05 20:34N 40°42' W 074°01'11 9.1
2016-May-05 19:24N 40°31' W 074°02'1416.2
2016-May-05 18:33N 40°45' W 073°58'0 0.0
2016-May-05 17:33N 40°45' W 073°58'0 0.0
2016-May-05 16:34N 40°45' W 073°58'0 0.0
2016-May-05 15:34N 40°45' W 073°58'0 0.0
2016-May-05 14:34N 40°45' W 073°58'4 4.4
2016-May-05 13:34N 40°41' W 074°01'6 5.5
2016-May-05 12:33N 40°35' W 074°02'6 5.5
2016-May-05 11:33N 40°41' W 074°02'8 0.7
2016-May-05 00:06N 40°33' W 074°02'1121.4
2016-May-04 23:33N 40°44' W 073°58'3 1.7
2016-May-04 21:34N 40°41' W 074°01'2 2.1
2016-May-04 20:34N 40°40' W 074°02'7 5.5
2016-May-04 19:23N 40°33' W 074°02'1214.6
2016-May-04 18:33N 40°45' W 073°58'0 0.0
2016-May-04 17:33N 40°45' W 073°58'0 0.0
2016-May-04 16:33N 40°45' W 073°58'0 0.0
2016-May-04 15:33N 40°45' W 073°58'0 0.0
2016-May-04 14:33N 40°45' W 073°58'3 2.9
2016-May-04 13:33N 40°42' W 074°00'9 8.9
2016-May-04 12:32N 40°33' W 074°02'8 7.7
2016-May-04 11:34N 40°41' W 074°01'4 0.3
2016-May-03 23:34N 40°44' W 073°58'3 1.5
2016-May-03 21:34N 40°42' W 074°01'3 2.8
2016-May-03 20:34N 40°39' W 074°02'5 4.1
2016-May-03 19:21N 40°34' W 074°02'1113.9
2016-May-03 18:34N 40°45' W 073°58'0 0.0
2016-May-03 17:34N 40°45' W 073°58'0 0.0
2016-May-03 16:34N 40°45' W 073°58'0 0.0
2016-May-03 15:34N 40°45' W 073°58'0 0.0
2016-May-03 14:34N 40°45' W 073°58'3 2.9
2016-May-03 13:34N 40°42' W 074°00'9 8.9
2016-May-03 12:31N 40°33' W 074°02'7 7.6
2016-May-03 11:34N 40°40' W 074°02'6 0.6
2016-May-03 00:06N 40°34' W 074°02'1120.1
2016-May-02 23:34N 40°44' W 073°58'3 1.5
2016-May-02 21:33N 40°42' W 074°01'1 1.2
2016-May-02 20:34N 40°41' W 074°01'8 6.4
2016-May-02 19:22N 40°33' W 074°03'1214.4
2016-May-02 18:33N 40°45' W 073°58'0 0.0
2016-May-02 17:33N 40°45' W 073°58'0 0.0
2016-May-02 16:33N 40°45' W 073°58'0 0.0
2016-May-02 15:34N 40°45' W 073°58'0 0.0
2016-May-02 14:33N 40°45' W 073°58'3 3.0
2016-May-02 13:34N 40°42' W 074°00'9 8.7
2016-May-02 12:31N 40°33' W 074°02'7 7.7
2016-May-02 11:34N 40°41' W 074°01'  
2016-Apr-30 00:03N 40°33' W 074°02'1122.0
2016-Apr-29 23:34N 40°43' W 073°58'3 1.3
2016-Apr-29 21:33N 40°41' W 074°01'0 0.5
2016-Apr-29 20:34N 40°41' W 074°01'8 6.3
2016-Apr-29 19:21N 40°33' W 074°03'1215.0
2016-Apr-29 18:33N 40°45' W 073°58'0 0.0
2016-Apr-29 17:33N 40°45' W 073°58'0 0.0
2016-Apr-29 16:33N 40°45' W 073°58'0 0.0
2016-Apr-29 15:33N 40°45' W 073°58'0 0.0
2016-Apr-29 14:33N 40°45' W 073°58'3 2.9
2016-Apr-29 13:33N 40°42' W 074°00'9 8.7
2016-Apr-29 12:31N 40°33' W 074°03'7 7.4
2016-Apr-29 11:33N 40°40' W 074°01'6 0.5
2016-Apr-29 00:04N 40°35' W 074°03'1013.9
2016-Apr-28 23:19N 40°45' W 073°58'4 2.1
2016-Apr-28 21:34N 40°41' W 074°01'1 0.9
2016-Apr-28 20:34N 40°41' W 074°02'7 6.0
2016-Apr-28 19:22N 40°34' W 074°03'1113.4
2016-Apr-28 18:32N 40°45' W 073°58'0 0.0
2016-Apr-28 17:31N 40°45' W 073°58'0 0.0
2016-Apr-28 16:32N 40°45' W 073°58'0 0.0
2016-Apr-28 15:25N 40°45' W 073°58'0 0.0
2016-Apr-28 14:31N 40°45' W 073°58'3 3.6
2016-Apr-28 13:33N 40°42' W 074°00'7 6.1
2016-Apr-28 12:28N 40°35' W 074°03'5 5.3
2016-Apr-28 11:34N 40°40' W 074°01'  

Dump ship's entire track history